^^
Station Historical Data
Daily Summary for February 14, 2018 Units:  Both    English   Metric
« Previous Day
Next Day »
Daily Weekly Monthly Yearly Custom
  High: Low: Average:
Temperature: TemperatureF °F /  -17.8 °C 44.8 °F /  7.1 °C 52.3 °F /  11.3 °C
Dew Point: DewpointF °F /  -17.8 °C 43.2 °F /  6.2 °C 50.8 °F /  10.4 °C
Humidity: Humidity% 86% 94%
Wind Speed: WindSpeedMPHmph /  0km/h - 0mph /  0km/h
Wind Gust: WindSpeedGustMPHmph /  0km/h - -
Wind- - North
Pressure: PressureIn in /  0 hPa 30.33 in /  1027 hPa -
Precipitation: 0.11 in /  2.79 mm    
Historical Graphs
 
 
Tabular Data for February 14, 2018
Time Temperature Dew Point Pressure Wind Wind Speed Wind Gust Humidity Rainfall Rate (Hourly)
TemperatureF °F /  -17.8 °C DewpointF °F /  -17.8 °C PressureInin /  0hPa Calm     Humidity% HourlyPrecipInin /  0mm
00:05 46.9 °F /  8.3 °C 45.0 °F /  7.2 °C 30.56in /  1034.8hPa Calm     93% 0.00in /  0mm
00:11 46.8 °F /  8.2 °C 44.8 °F /  7.1 °C 30.56in /  1034.8hPa Calm     93% 0.00in /  0mm
00:16 46.6 °F /  8.1 °C 44.6 °F /  7 °C 30.56in /  1034.8hPa Calm     93% 0.00in /  0mm
00:21 46.4 °F /  8 °C 44.4 °F /  6.9 °C 30.56in /  1034.8hPa Calm     93% 0.00in /  0mm
00:26 46.2 °F /  7.9 °C 44.2 °F /  6.8 °C 30.56in /  1034.8hPa Calm     93% 0.00in /  0mm
00:31 46.0 °F /  7.8 °C 44.1 °F /  6.7 °C 30.55in /  1034.4hPa Calm     93% 0.00in /  0mm
00:36 45.9 °F /  7.7 °C 43.9 °F /  6.6 °C 30.56in /  1034.8hPa Calm     93% 0.00in /  0mm
00:41 45.7 °F /  7.6 °C 44.1 °F /  6.7 °C 30.56in /  1034.8hPa Calm     94% 0.00in /  0mm
00:47 45.5 °F /  7.5 °C 43.9 °F /  6.6 °C 30.56in /  1034.8hPa Calm     94% 0.00in /  0mm
00:52 45.3 °F /  7.4 °C 43.7 °F /  6.5 °C 30.56in /  1034.8hPa Calm     94% 0.00in /  0mm
00:58 45.1 °F /  7.3 °C 43.5 °F /  6.4 °C 30.56in /  1034.8hPa Calm     94% 0.00in /  0mm
01:03 45.0 °F /  7.2 °C 43.3 °F /  6.3 °C 30.56in /  1034.8hPa Calm     94% 0.00in /  0mm
01:08 45.0 °F /  7.2 °C 43.3 °F /  6.3 °C 30.56in /  1034.8hPa Calm     94% 0.00in /  0mm
01:13 44.8 °F /  7.1 °C 43.2 °F /  6.2 °C 30.56in /  1034.8hPa Calm     94% 0.00in /  0mm
01:18 44.8 °F /  7.1 °C 43.2 °F /  6.2 °C 30.56in /  1034.8hPa Calm     94% 0.00in /  0mm
01:24 44.8 °F /  7.1 °C 43.5 °F /  6.4 °C 30.56in /  1034.8hPa Calm     95% 0.00in /  0mm
01:29 45.0 °F /  7.2 °C 43.7 °F /  6.5 °C 30.56in /  1034.8hPa Calm     95% 0.00in /  0mm
01:34 45.0 °F /  7.2 °C 43.7 °F /  6.5 °C 30.56in /  1034.8hPa Calm     95% 0.00in /  0mm
01:39 45.1 °F /  7.3 °C 43.9 °F /  6.6 °C 30.56in /  1034.8hPa Calm     95% 0.00in /  0mm
01:44 45.1 °F /  7.3 °C 43.9 °F /  6.6 °C 30.56in /  1034.8hPa Calm     95% 0.00in /  0mm
01:49 45.3 °F /  7.4 °C 44.1 °F /  6.7 °C 30.56in /  1034.8hPa Calm     95% 0.00in /  0mm
01:54 45.3 °F /  7.4 °C 44.1 °F /  6.7 °C 30.56in /  1034.8hPa Calm     95% 0.00in /  0mm
01:59 45.5 °F /  7.5 °C 44.2 °F /  6.8 °C 30.56in /  1034.8hPa Calm     95% 0.00in /  0mm
02:05 45.7 °F /  7.6 °C 44.4 °F /  6.9 °C 30.55in /  1034.4hPa Calm     95% 0.00in /  0mm
02:10 45.7 °F /  7.6 °C 44.4 °F /  6.9 °C 30.55in /  1034.4hPa Calm     95% 0.00in /  0mm
02:16 45.9 °F /  7.7 °C 44.4 °F /  6.9 °C 30.55in /  1034.4hPa Calm     95% 0.00in /  0mm
02:21 45.9 °F /  7.7 °C 44.4 °F /  6.9 °C 30.55in /  1034.4hPa Calm     95% 0.00in /  0mm
02:27 45.9 °F /  7.7 °C 44.8 °F /  7.1 °C 30.54in /  1034.1hPa Calm     96% 0.00in /  0mm
02:32 46.0 °F /  7.8 °C 45.0 °F /  7.2 °C 30.55in /  1034.4hPa Calm     96% 0.00in /  0mm
02:37 46.0 °F /  7.8 °C 45.0 °F /  7.2 °C 30.55in /  1034.4hPa Calm     96% 0.00in /  0mm
02:42 46.0 °F /  7.8 °C 44.6 °F /  7 °C 30.55in /  1034.4hPa Calm     95% 0.00in /  0mm
02:48 46.0 °F /  7.8 °C 44.6 °F /  7 °C 30.55in /  1034.4hPa Calm     95% 0.00in /  0mm
02:54 46.2 °F /  7.9 °C 45.1 °F /  7.3 °C 30.54in /  1034.1hPa Calm     96% 0.00in /  0mm
02:59 46.2 °F /  7.9 °C 44.8 °F /  7.1 °C 30.55in /  1034.4hPa Calm     95% 0.00in /  0mm
03:04 46.2 °F /  7.9 °C 44.8 °F /  7.1 °C 30.54in /  1034.1hPa Calm     95% 0.00in /  0mm
03:10 46.4 °F /  8 °C 45.0 °F /  7.2 °C 30.53in /  1033.7hPa Calm     95% 0.00in /  0mm
03:16 46.4 °F /  8 °C 45.0 °F /  7.2 °C 30.53in /  1033.7hPa Calm     95% 0.00in /  0mm
03:21 46.2 °F /  7.9 °C 44.8 °F /  7.1 °C 30.52in /  1033.4hPa Calm     95% 0.00in /  0mm
03:26 46.2 °F /  7.9 °C 44.8 °F /  7.1 °C 30.52in /  1033.4hPa Calm     95% 0.00in /  0mm
03:31 46.0 °F /  7.8 °C 44.6 °F /  7 °C 30.52in /  1033.4hPa Calm     95% 0.00in /  0mm
03:37 46.0 °F /  7.8 °C 44.6 °F /  7 °C 30.52in /  1033.4hPa Calm     95% 0.00in /  0mm
03:43 46.0 °F /  7.8 °C 44.6 °F /  7 °C 30.53in /  1033.7hPa Calm     95% 0.00in /  0mm
03:48 46.0 °F /  7.8 °C 45.0 °F /  7.2 °C 30.52in /  1033.4hPa Calm     96% 0.00in /  0mm
03:53 46.0 °F /  7.8 °C 45.0 °F /  7.2 °C 30.52in /  1033.4hPa Calm     96% 0.00in /  0mm
03:58 46.0 °F /  7.8 °C 45.0 °F /  7.2 °C 30.51in /  1033.1hPa Calm     96% 0.00in /  0mm
04:02 46.0 °F /  7.8 °C 44.6 °F /  7 °C 30.51in /  1033.1hPa Calm     95% 0.00in /  0mm
04:03 46.0 °F /  7.8 °C 44.6 °F /  7 °C 30.51in /  1033.1hPa Calm     95% 0.00in /  0mm
04:09 45.9 °F /  7.7 °C 44.8 °F /  7.1 °C 30.51in /  1033.1hPa Calm     96% 0.00in /  0mm
04:14 46.0 °F /  7.8 °C 45.0 °F /  7.2 °C 30.51in /  1033.1hPa Calm     96% 0.00in /  0mm
04:20 46.0 °F /  7.8 °C 45.0 °F /  7.2 °C 30.51in /  1033.1hPa Calm     96% 0.00in /  0mm
04:25 46.0 °F /  7.8 °C 45.0 °F /  7.2 °C 30.51in /  1033.1hPa Calm     96% 0.00in /  0mm
04:30 46.0 °F /  7.8 °C 45.0 °F /  7.2 °C 30.51in /  1033.1hPa Calm     96% 0.00in /  0mm
04:35 46.0 °F /  7.8 °C 45.0 °F /  7.2 °C 30.51in /  1033.1hPa Calm     96% 0.00in /  0mm
04:41 46.0 °F /  7.8 °C 45.0 °F /  7.2 °C 30.51in /  1033.1hPa Calm     96% 0.00in /  0mm
04:47 46.0 °F /  7.8 °C 45.0 °F /  7.2 °C 30.51in /  1033.1hPa Calm     96% 0.00in /  0mm
04:52 46.0 °F /  7.8 °C 45.0 °F /  7.2 °C 30.51in /  1033.1hPa Calm     96% 0.00in /  0mm
04:58 46.0 °F /  7.8 °C 45.0 °F /  7.2 °C 30.51in /  1033.1hPa Calm     96% 0.00in /  0mm
05:03 46.0 °F /  7.8 °C 45.0 °F /  7.2 °C 30.52in /  1033.4hPa Calm     96% 0.00in /  0mm
05:09 46.0 °F /  7.8 °C 45.0 °F /  7.2 °C 30.52in /  1033.4hPa Calm     96% 0.00in /  0mm
05:14 46.0 °F /  7.8 °C 45.0 °F /  7.2 °C 30.51in /  1033.1hPa Calm     96% 0.00in /  0mm
05:19 46.2 °F /  7.9 °C 45.1 °F /  7.3 °C 30.51in /  1033.1hPa Calm     96% 0.00in /  0mm
05:24 46.2 °F /  7.9 °C 45.1 °F /  7.3 °C 30.51in /  1033.1hPa Calm     96% 0.00in /  0mm
05:29 46.2 °F /  7.9 °C 45.1 °F /  7.3 °C 30.51in /  1033.1hPa Calm     96% 0.00in /  0mm
05:35 46.2 °F /  7.9 °C 45.1 °F /  7.3 °C 30.50in /  1032.7hPa Calm     96% 0.00in /  0mm
05:40 46.2 °F /  7.9 °C 45.1 °F /  7.3 °C 30.51in /  1033.1hPa Calm     96% 0.00in /  0mm
05:46 46.2 °F /  7.9 °C 45.1 °F /  7.3 °C 30.52in /  1033.4hPa Calm     96% 0.00in /  0mm
05:51 46.2 °F /  7.9 °C 45.1 °F /  7.3 °C 30.52in /  1033.4hPa Calm     96% 0.00in /  0mm
05:57 46.2 °F /  7.9 °C 45.1 °F /  7.3 °C 30.52in /  1033.4hPa Calm     96% 0.00in /  0mm
06:03 46.2 °F /  7.9 °C 45.1 °F /  7.3 °C 30.52in /  1033.4hPa Calm     96% 0.00in /  0mm
06:08 46.2 °F /  7.9 °C 45.1 °F /  7.3 °C 30.52in /  1033.4hPa Calm     96% 0.00in /  0mm
06:13 46.4 °F /  8 °C 45.3 °F /  7.4 °C 30.52in /  1033.4hPa Calm     96% 0.00in /  0mm
06:19 46.4 °F /  8 °C 45.3 °F /  7.4 °C 30.53in /  1033.7hPa Calm     96% 0.00in /  0mm
06:24 46.4 °F /  8 °C 45.3 °F /  7.4 °C 30.53in /  1033.7hPa Calm     96% 0.00in /  0mm
06:29 46.4 °F /  8 °C 45.3 °F /  7.4 °C 30.53in /  1033.7hPa Calm     96% 0.00in /  0mm
06:34 46.6 °F /  8.1 °C 45.5 °F /  7.5 °C 30.53in /  1033.7hPa Calm     96% 0.00in /  0mm
06:39 46.6 °F /  8.1 °C 45.5 °F /  7.5 °C 30.53in /  1033.7hPa Calm     96% 0.00in /  0mm
06:45 46.6 °F /  8.1 °C 45.5 °F /  7.5 °C 30.53in /  1033.7hPa Calm     96% 0.00in /  0mm
06:50 46.6 °F /  8.1 °C 45.5 °F /  7.5 °C 30.53in /  1033.7hPa Calm     96% 0.00in /  0mm
06:56 46.6 °F /  8.1 °C 45.5 °F /  7.5 °C 30.53in /  1033.7hPa Calm     96% 0.00in /  0mm
07:02 46.6 °F /  8.1 °C 45.5 °F /  7.5 °C 30.53in /  1033.7hPa Calm     96% 0.00in /  0mm
07:08 46.6 °F /  8.1 °C 45.5 °F /  7.5 °C 30.53in /  1033.7hPa Calm     96% 0.00in /  0mm
07:13 46.6 °F /  8.1 °C 45.5 °F /  7.5 °C 30.53in /  1033.7hPa Calm     96% 0.00in /  0mm
07:19 46.6 °F /  8.1 °C 45.5 °F /  7.5 °C 30.53in /  1033.7hPa Calm     96% 0.00in /  0mm
07:24 46.6 °F /  8.1 °C 45.5 °F /  7.5 °C 30.53in /  1033.7hPa Calm     96% 0.00in /  0mm
07:29 46.6 °F /  8.1 °C 45.5 °F /  7.5 °C 30.53in /  1033.7hPa Calm     96% 0.00in /  0mm
07:35 46.6 °F /  8.1 °C 45.5 °F /  7.5 °C 30.53in /  1033.7hPa Calm     96% 0.00in /  0mm
07:41 46.6 °F /  8.1 °C 45.5 °F /  7.5 °C 30.54in /  1034.1hPa Calm     96% 0.00in /  0mm
07:46 46.6 °F /  8.1 °C 45.5 °F /  7.5 °C 30.53in /  1033.7hPa Calm     96% 0.00in /  0mm
07:51 46.8 °F /  8.2 °C 45.7 °F /  7.6 °C 30.53in /  1033.7hPa Calm     96% 0.00in /  0mm
07:56 46.8 °F /  8.2 °C 45.7 °F /  7.6 °C 30.54in /  1034.1hPa Calm     96% 0.00in /  0mm
08:02 46.8 °F /  8.2 °C 45.7 °F /  7.6 °C 30.54in /  1034.1hPa Calm     96% 0.00in /  0mm
08:07 46.8 °F /  8.2 °C 45.7 °F /  7.6 °C 30.53in /  1033.7hPa Calm     96% 0.00in /  0mm
08:12 46.8 °F /  8.2 °C 45.7 °F /  7.6 °C 30.53in /  1033.7hPa Calm     96% 0.00in /  0mm
08:17 46.8 °F /  8.2 °C 45.7 °F /  7.6 °C 30.53in /  1033.7hPa Calm     96% 0.01in /  0.25mm
08:22 46.9 °F /  8.3 °C 45.9 °F /  7.7 °C 30.53in /  1033.7hPa Calm     96% 0.01in /  0.25mm
08:27 46.9 °F /  8.3 °C 45.9 °F /  7.7 °C 30.52in /  1033.4hPa Calm     96% 0.01in /  0.25mm
08:32 47.1 °F /  8.4 °C 46.4 °F /  8 °C 30.53in /  1033.7hPa Calm     97% 0.01in /  0.25mm
08:38 47.1 °F /  8.4 °C 46.4 °F /  8 °C 30.53in /  1033.7hPa Calm     97% 0.01in /  0.25mm
08:43 47.5 °F /  8.6 °C 46.8 °F /  8.2 °C 30.53in /  1033.7hPa Calm     97% 0.01in /  0.25mm
08:48 47.5 °F /  8.6 °C 46.8 °F /  8.2 °C 30.53in /  1033.7hPa Calm     97% 0.01in /  0.25mm
08:54 47.7 °F /  8.7 °C 46.9 °F /  8.3 °C 30.53in /  1033.7hPa Calm     97% 0.01in /  0.25mm
08:59 47.7 °F /  8.7 °C 46.9 °F /  8.3 °C 30.53in /  1033.7hPa Calm     97% 0.01in /  0.25mm
09:05 47.8 °F /  8.8 °C 46.9 °F /  8.3 °C 30.53in /  1033.7hPa Calm     97% 0.01in /  0.25mm
09:10 47.8 °F /  8.8 °C 46.9 °F /  8.3 °C 30.53in /  1033.7hPa Calm     97% 0.02in /  0.51mm
09:15 48.0 °F /  8.9 °C 47.1 °F /  8.4 °C 30.53in /  1033.7hPa Calm     97% 0.01in /  0.25mm
09:20 48.0 °F /  8.9 °C 47.1 °F /  8.4 °C 30.54in /  1034.1hPa Calm     97% 0.01in /  0.25mm
09:25 48.0 °F /  8.9 °C 47.1 °F /  8.4 °C 30.54in /  1034.1hPa Calm     97% 0.01in /  0.25mm
09:30 48.2 °F /  9 °C 47.3 °F /  8.5 °C 30.54in /  1034.1hPa Calm     97% 0.01in /  0.25mm
09:36 48.2 °F /  9 °C 47.3 °F /  8.5 °C 30.53in /  1033.7hPa Calm     97% 0.01in /  0.25mm
09:41 48.4 °F /  9.1 °C 47.5 °F /  8.6 °C 30.53in /  1033.7hPa Calm     97% 0.02in /  0.51mm
09:47 48.4 °F /  9.1 °C 47.5 °F /  8.6 °C 30.53in /  1033.7hPa Calm     97% 0.02in /  0.51mm
09:52 48.6 °F /  9.2 °C 47.7 °F /  8.7 °C 30.53in /  1033.7hPa Calm     97% 0.02in /  0.51mm
09:58 48.6 °F /  9.2 °C 47.7 °F /  8.7 °C 30.53in /  1033.7hPa Calm     97% 0.02in /  0.51mm
10:04 48.7 °F /  9.3 °C 47.8 °F /  8.8 °C 30.52in /  1033.4hPa Calm     97% 0.03in /  0.76mm
10:09 48.7 °F /  9.3 °C 47.8 °F /  8.8 °C 30.53in /  1033.7hPa Calm     97% 0.03in /  0.76mm
10:15 48.9 °F /  9.4 °C 48.0 °F /  8.9 °C 30.53in /  1033.7hPa Calm     97% 0.03in /  0.76mm
10:20 49.1 °F /  9.5 °C 48.2 °F /  9 °C 30.53in /  1033.7hPa Calm     97% 0.03in /  0.76mm
10:26 49.3 °F /  9.6 °C 48.4 °F /  9.1 °C 30.51in /  1033.1hPa Calm     97% 0.04in /  1.02mm
10:31 49.5 °F /  9.7 °C 48.6 °F /  9.2 °C 30.51in /  1033.1hPa Calm     97% 0.04in /  1.02mm
10:37 49.5 °F /  9.7 °C 48.6 °F /  9.2 °C 30.50in /  1032.7hPa Calm     97% 0.04in /  1.02mm
10:43 49.6 °F /  9.8 °C 48.7 °F /  9.3 °C 30.52in /  1033.4hPa Calm     97% 0.03in /  0.76mm
10:48 49.8 °F /  9.9 °C 48.9 °F /  9.4 °C 30.52in /  1033.4hPa Calm     97% 0.04in /  1.02mm
10:53 50.0 °F /  10 °C 49.1 °F /  9.5 °C 30.52in /  1033.4hPa Calm     97% 0.04in /  1.02mm
10:59 50.2 °F /  10.1 °C 49.3 °F /  9.6 °C 30.52in /  1033.4hPa Calm     97% 0.03in /  0.76mm
11:04 50.4 °F /  10.2 °C 49.5 °F /  9.7 °C 30.52in /  1033.4hPa Calm     97% 0.03in /  0.76mm
11:09 50.4 °F /  10.2 °C 49.5 °F /  9.7 °C 30.52in /  1033.4hPa Calm     97% 0.02in /  0.51mm
11:14 50.5 °F /  10.3 °C 49.6 °F /  9.8 °C 30.52in /  1033.4hPa Calm     97% 0.02in /  0.51mm
11:20 50.7 °F /  10.4 °C 49.8 °F /  9.9 °C 30.51in /  1033.1hPa Calm     97% 0.02in /  0.51mm
11:26 50.9 °F /  10.5 °C 50.0 °F /  10 °C 30.51in /  1033.1hPa Calm     97% 0.02in /  0.51mm
11:31 51.1 °F /  10.6 °C 50.2 °F /  10.1 °C 30.51in /  1033.1hPa Calm     97% 0.02in /  0.51mm
11:36 51.3 °F /  10.7 °C 50.4 °F /  10.2 °C 30.51in /  1033.1hPa Calm     97% 0.02in /  0.51mm
11:41 51.3 °F /  10.7 °C 50.4 °F /  10.2 °C 30.51in /  1033.1hPa Calm     97% 0.02in /  0.51mm
11:47 51.4 °F /  10.8 °C 50.5 °F /  10.3 °C 30.51in /  1033.1hPa Calm     97% 0.01in /  0.25mm
11:52 51.4 °F /  10.8 °C 50.5 °F /  10.3 °C 30.50in /  1032.7hPa Calm     97% 0.01in /  0.25mm
11:57 51.4 °F /  10.8 °C 50.5 °F /  10.3 °C 30.51in /  1033.1hPa Calm     97% 0.01in /  0.25mm
12:02 51.6 °F /  10.9 °C 50.7 °F /  10.4 °C 30.50in /  1032.7hPa Calm     97% 0.01in /  0.25mm
12:08 52.2 °F /  11.2 °C 51.3 °F /  10.7 °C 30.50in /  1032.7hPa Calm     97% 0.01in /  0.25mm
12:13 52.3 °F /  11.3 °C 51.4 °F /  10.8 °C 30.49in /  1032.4hPa Calm     97% 0.01in /  0.25mm
12:19 52.5 °F /  11.4 °C 51.6 °F /  10.9 °C 30.49in /  1032.4hPa Calm     97% 0.01in /  0.25mm
12:24 52.9 °F /  11.6 °C 52.3 °F /  11.3 °C 30.49in /  1032.4hPa Calm     98% 0.01in /  0.25mm
12:29 53.1 °F /  11.7 °C 52.2 °F /  11.2 °C 30.49in /  1032.4hPa Calm     97% 0.00in /  0mm
12:35 53.4 °F /  11.9 °C 52.9 °F /  11.6 °C 30.48in /  1032.1hPa Calm     98% 0.00in /  0mm
12:40 53.6 °F /  12 °C 53.1 °F /  11.7 °C 30.47in /  1031.7hPa Calm     98% 0.00in /  0mm
12:46 54.0 °F /  12.2 °C 53.1 °F /  11.7 °C 30.47in /  1031.7hPa Calm     97% 0.00in /  0mm
12:51 54.3 °F /  12.4 °C 53.4 °F /  11.9 °C 30.47in /  1031.7hPa Calm     97% 0.00in /  0mm
12:56 55.0 °F /  12.8 °C 54.1 °F /  12.3 °C 30.46in /  1031.4hPa Calm     97% 0.00in /  0mm
13:02 55.6 °F /  13.1 °C 55.0 °F /  12.8 °C 30.45in /  1031hPa Calm     98% 0.00in /  0mm
13:07 55.9 °F /  13.3 °C 55.4 °F /  13 °C 30.45in /  1031hPa Calm     98% 0.00in /  0mm
13:12 56.1 °F /  13.4 °C 55.6 °F /  13.1 °C 30.45in /  1031hPa Calm     98% 0.00in /  0mm
13:17 56.3 °F /  13.5 °C 55.4 °F /  13 °C 30.44in /  1030.7hPa Calm     97% 0.00in /  0mm
13:23 56.7 °F /  13.7 °C 56.1 °F /  13.4 °C 30.44in /  1030.7hPa Calm     98% 0.00in /  0mm
13:28 57.0 °F /  13.9 °C 56.5 °F /  13.6 °C 30.43in /  1030.4hPa Calm     98% 0.00in /  0mm
13:33 57.4 °F /  14.1 °C 56.8 °F /  13.8 °C 30.44in /  1030.7hPa Calm     98% 0.00in /  0mm
13:38 57.6 °F /  14.2 °C 57.0 °F /  13.9 °C 30.43in /  1030.4hPa Calm     98% 0.00in /  0mm
13:44 57.7 °F /  14.3 °C 57.2 °F /  14 °C 30.43in /  1030.4hPa Calm     98% 0.00in /  0mm
13:49 57.9 °F /  14.4 °C 57.4 °F /  14.1 °C 30.43in /  1030.4hPa Calm     98% 0.00in /  0mm
13:54 57.7 °F /  14.3 °C 56.8 °F /  13.8 °C 30.42in /  1030hPa Calm     97% 0.00in /  0mm
14:00 57.7 °F /  14.3 °C 56.8 °F /  13.8 °C 30.42in /  1030hPa Calm     97% 0.00in /  0mm
14:05 57.7 °F /  14.3 °C 56.8 °F /  13.8 °C 30.42in /  1030hPa Calm     97% 0.00in /  0mm
14:10 57.9 °F /  14.4 °C 56.8 °F /  13.8 °C 30.42in /  1030hPa Calm     96% 0.00in /  0mm
14:16 58.1 °F /  14.5 °C 57.0 °F /  13.9 °C 30.42in /  1030hPa Calm     96% 0.00in /  0mm
14:21 58.3 °F /  14.6 °C 56.8 °F /  13.8 °C 30.42in /  1030hPa Calm     95% 0.00in /  0mm
14:26 58.5 °F /  14.7 °C 57.0 °F /  13.9 °C 30.41in /  1029.7hPa Calm     95% 0.00in /  0mm
14:31 58.6 °F /  14.8 °C 56.8 °F /  13.8 °C 30.41in /  1029.7hPa Calm     94% 0.00in /  0mm
14:37 58.8 °F /  14.9 °C 56.8 °F /  13.8 °C 30.40in /  1029.3hPa Calm     93% 0.00in /  0mm
14:42 59.2 °F /  15.1 °C 57.2 °F /  14 °C 30.41in /  1029.7hPa Calm     93% 0.00in /  0mm
14:48 59.2 °F /  15.1 °C 56.8 °F /  13.8 °C 30.40in /  1029.3hPa Calm     92% 0.00in /  0mm
14:53 59.4 °F /  15.2 °C 56.7 °F /  13.7 °C 30.40in /  1029.3hPa Calm     91% 0.00in /  0mm
14:58 59.5 °F /  15.3 °C 57.2 °F /  14 °C 30.40in /  1029.3hPa Calm     92% 0.00in /  0mm
15:04 59.9 °F /  15.5 °C 57.2 °F /  14 °C 30.40in /  1029.3hPa Calm     91% 0.00in /  0mm
15:09 60.1 °F /  15.6 °C 57.2 °F /  14 °C 30.40in /  1029.3hPa Calm     90% 0.00in /  0mm
15:14 59.9 °F /  15.5 °C 56.7 °F /  13.7 °C 30.40in /  1029.3hPa Calm     89% 0.00in /  0mm
15:19 59.7 °F /  15.4 °C 56.5 °F /  13.6 °C 30.40in /  1029.3hPa Calm     89% 0.00in /  0mm
15:25 59.9 °F /  15.5 °C 56.7 °F /  13.7 °C 30.39in /  1029hPa Calm     89% 0.00in /  0mm
15:30 60.1 °F /  15.6 °C 56.5 °F /  13.6 °C 30.39in /  1029hPa Calm     88% 0.00in /  0mm
15:36 60.3 °F /  15.7 °C 57.0 °F /  13.9 °C 30.38in /  1028.7hPa Calm     89% 0.00in /  0mm
15:41 60.4 °F /  15.8 °C 57.2 °F /  14 °C 30.38in /  1028.7hPa Calm     89% 0.00in /  0mm
15:46 60.8 °F /  16 °C 57.2 °F /  14 °C 30.38in /  1028.7hPa Calm     88% 0.00in /  0mm
15:51 61.0 °F /  16.1 °C 57.0 °F /  13.9 °C 30.37in /  1028.3hPa Calm     87% 0.00in /  0mm
15:58 61.0 °F /  16.1 °C 56.8 °F /  13.8 °C 30.37in /  1028.3hPa Calm     86% 0.00in /  0mm
16:03 60.8 °F /  16 °C 56.7 °F /  13.7 °C 30.37in /  1028.3hPa Calm     86% 0.00in /  0mm
16:08 60.6 °F /  15.9 °C 56.7 °F /  13.7 °C 30.37in /  1028.3hPa Calm     87% 0.00in /  0mm
16:13 60.6 °F /  15.9 °C 56.7 °F /  13.7 °C 30.37in /  1028.3hPa Calm     87% 0.00in /  0mm
16:19 60.6 °F /  15.9 °C 56.7 °F /  13.7 °C 30.37in /  1028.3hPa Calm     87% 0.00in /  0mm
16:24 60.8 °F /  16 °C 56.8 °F /  13.8 °C 30.37in /  1028.3hPa Calm     87% 0.00in /  0mm
16:29 61.0 °F /  16.1 °C 57.4 °F /  14.1 °C 30.37in /  1028.3hPa Calm     88% 0.00in /  0mm
16:34 61.0 °F /  16.1 °C 57.0 °F /  13.9 °C 30.37in /  1028.3hPa Calm     87% 0.00in /  0mm
16:39 61.0 °F /  16.1 °C 56.8 °F /  13.8 °C 30.37in /  1028.3hPa Calm     86% 0.00in /  0mm
16:44 61.0 °F /  16.1 °C 57.0 °F /  13.9 °C 30.36in /  1028hPa Calm     87% 0.00in /  0mm
16:49 61.0 °F /  16.1 °C 57.4 °F /  14.1 °C 30.37in /  1028.3hPa Calm     88% 0.00in /  0mm
16:55 61.0 °F /  16.1 °C 57.4 °F /  14.1 °C 30.36in /  1028hPa Calm     88% 0.00in /  0mm
17:00 60.8 °F /  16 °C 57.2 °F /  14 °C 30.36in /  1028hPa Calm     88% 0.00in /  0mm
17:05 60.6 °F /  15.9 °C 57.0 °F /  13.9 °C 30.37in /  1028.3hPa Calm     88% 0.00in /  0mm
17:10 60.6 °F /  15.9 °C 57.0 °F /  13.9 °C 30.36in /  1028hPa Calm     88% 0.00in /  0mm
17:15 60.4 °F /  15.8 °C 56.8 °F /  13.8 °C 30.36in /  1028hPa Calm     88% 0.00in /  0mm
17:21 60.4 °F /  15.8 °C 56.8 °F /  13.8 °C 30.37in /  1028.3hPa Calm     88% 0.00in /  0mm
17:26 60.4 °F /  15.8 °C 57.2 °F /  14 °C 30.36in /  1028hPa Calm     89% 0.00in /  0mm
17:31 60.3 °F /  15.7 °C 57.0 °F /  13.9 °C 30.37in /  1028.3hPa Calm     89% 0.00in /  0mm
17:37 60.3 °F /  15.7 °C 57.0 °F /  13.9 °C 30.37in /  1028.3hPa Calm     89% 0.00in /  0mm
17:43 60.1 °F /  15.6 °C 56.8 °F /  13.8 °C 30.37in /  1028.3hPa Calm     89% 0.00in /  0mm
17:48 60.1 °F /  15.6 °C 56.8 °F /  13.8 °C 30.36in /  1028hPa Calm     89% 0.00in /  0mm
17:53 59.9 °F /  15.5 °C 56.7 °F /  13.7 °C 30.36in /  1028hPa Calm     89% 0.00in /  0mm
17:59 59.7 °F /  15.4 °C 56.5 °F /  13.6 °C 30.36in /  1028hPa Calm     89% 0.00in /  0mm
18:05 59.7 °F /  15.4 °C 56.8 °F /  13.8 °C 30.35in /  1027.7hPa Calm     90% 0.00in /  0mm
18:10 59.7 °F /  15.4 °C 56.8 °F /  13.8 °C 30.36in /  1028hPa Calm     90% 0.00in /  0mm
18:15 59.5 °F /  15.3 °C 56.7 °F /  13.7 °C 30.36in /  1028hPa Calm     90% 0.00in /  0mm
18:20 59.5 °F /  15.3 °C 56.7 °F /  13.7 °C 30.35in /  1027.7hPa Calm     90% 0.00in /  0mm
18:26 59.4 °F /  15.2 °C 56.5 °F /  13.6 °C 30.35in /  1027.7hPa Calm     90% 0.00in /  0mm
18:31 59.4 °F /  15.2 °C 56.7 °F /  13.7 °C 30.35in /  1027.7hPa Calm     91% 0.00in /  0mm
18:37 59.2 °F /  15.1 °C 56.5 °F /  13.6 °C 30.35in /  1027.7hPa Calm     91% 0.00in /  0mm
18:48 58.8 °F /  14.9 °C 56.5 °F /  13.6 °C 30.35in /  1027.7hPa Calm     92% 0.00in /  0mm
18:53 58.8 °F /  14.9 °C 56.5 °F /  13.6 °C 30.35in /  1027.7hPa Calm     92% 0.00in /  0mm
18:58 58.6 °F /  14.8 °C 56.3 °F /  13.5 °C 30.35in /  1027.7hPa Calm     92% 0.00in /  0mm
19:04 58.6 °F /  14.8 °C 56.3 °F /  13.5 °C 30.35in /  1027.7hPa Calm     92% 0.00in /  0mm
19:09 58.5 °F /  14.7 °C 56.1 °F /  13.4 °C 30.35in /  1027.7hPa Calm     92% 0.00in /  0mm
19:14 58.5 °F /  14.7 °C 56.5 °F /  13.6 °C 30.35in /  1027.7hPa Calm     93% 0.00in /  0mm
19:19 58.5 °F /  14.7 °C 56.1 °F /  13.4 °C 30.35in /  1027.7hPa Calm     92% 0.00in /  0mm
19:24 58.5 °F /  14.7 °C 56.1 °F /  13.4 °C 30.35in /  1027.7hPa Calm     92% 0.00in /  0mm
19:29 58.5 °F /  14.7 °C 56.5 °F /  13.6 °C 30.35in /  1027.7hPa Calm     93% 0.00in /  0mm
19:34 58.5 °F /  14.7 °C 56.5 °F /  13.6 °C 30.35in /  1027.7hPa Calm     93% 0.00in /  0mm
19:40 58.3 °F /  14.6 °C 56.3 °F /  13.5 °C 30.35in /  1027.7hPa Calm     93% 0.00in /  0mm
19:45 58.3 °F /  14.6 °C 56.3 °F /  13.5 °C 30.35in /  1027.7hPa Calm     93% 0.00in /  0mm
19:51 58.1 °F /  14.5 °C 56.3 °F /  13.5 °C 30.35in /  1027.7hPa Calm     94% 0.00in /  0mm
19:56 58.1 °F /  14.5 °C 56.3 °F /  13.5 °C 30.35in /  1027.7hPa Calm     94% 0.00in /  0mm
20:01 58.1 °F /  14.5 °C 56.3 °F /  13.5 °C 30.35in /  1027.7hPa Calm     94% 0.00in /  0mm
20:07 57.9 °F /  14.4 °C 56.1 °F /  13.4 °C 30.35in /  1027.7hPa Calm     94% 0.00in /  0mm
20:12 57.9 °F /  14.4 °C 56.1 °F /  13.4 °C 30.35in /  1027.7hPa Calm     94% 0.00in /  0mm
20:18 57.9 °F /  14.4 °C 56.1 °F /  13.4 °C 30.35in /  1027.7hPa Calm     94% 0.00in /  0mm
20:23 57.7 °F /  14.3 °C 55.9 °F /  13.3 °C 30.35in /  1027.7hPa Calm     94% 0.00in /  0mm
20:29 57.7 °F /  14.3 °C 56.3 °F /  13.5 °C 30.35in /  1027.7hPa Calm     95% 0.00in /  0mm
20:34 57.7 °F /  14.3 °C 56.3 °F /  13.5 °C 30.36in /  1028hPa Calm     95% 0.00in /  0mm
20:39 57.7 °F /  14.3 °C 56.3 °F /  13.5 °C 30.35in /  1027.7hPa Calm     95% 0.00in /  0mm
20:44 57.7 °F /  14.3 °C 56.3 °F /  13.5 °C 30.36in /  1028hPa Calm     95% 0.00in /  0mm
20:49 57.7 °F /  14.3 °C 56.3 °F /  13.5 °C 30.36in /  1028hPa Calm     95% 0.00in /  0mm
20:54 57.7 °F /  14.3 °C 56.3 °F /  13.5 °C 30.36in /  1028hPa Calm     95% 0.01in /  0.25mm
20:59 57.6 °F /  14.2 °C 56.1 °F /  13.4 °C 30.36in /  1028hPa Calm     95% 0.01in /  0.25mm
21:04 57.6 °F /  14.2 °C 56.1 °F /  13.4 °C 30.35in /  1027.7hPa Calm     95% 0.01in /  0.25mm
21:10 57.6 °F /  14.2 °C 56.1 °F /  13.4 °C 30.35in /  1027.7hPa Calm     95% 0.01in /  0.25mm
21:15 57.4 °F /  14.1 °C 56.3 °F /  13.5 °C 30.35in /  1027.7hPa Calm     96% 0.01in /  0.25mm
21:20 57.4 °F /  14.1 °C 56.3 °F /  13.5 °C 30.35in /  1027.7hPa Calm     96% 0.01in /  0.25mm
21:26 57.4 °F /  14.1 °C 56.3 °F /  13.5 °C 30.36in /  1028hPa Calm     96% 0.01in /  0.25mm
21:31 57.2 °F /  14 °C 56.1 °F /  13.4 °C 30.35in /  1027.7hPa Calm     96% 0.01in /  0.25mm
21:36 57.2 °F /  14 °C 56.1 °F /  13.4 °C 30.35in /  1027.7hPa Calm     96% 0.01in /  0.25mm
21:41 57.2 °F /  14 °C 56.1 °F /  13.4 °C 30.35in /  1027.7hPa Calm     96% 0.01in /  0.25mm
21:47 57.2 °F /  14 °C 56.1 °F /  13.4 °C 30.35in /  1027.7hPa Calm     96% 0.01in /  0.25mm
21:52 57.0 °F /  13.9 °C 55.9 °F /  13.3 °C 30.35in /  1027.7hPa Calm     96% 0.00in /  0mm
21:57 57.2 °F /  14 °C 56.1 °F /  13.4 °C 30.35in /  1027.7hPa Calm     96% 0.00in /  0mm
22:02 57.2 °F /  14 °C 56.1 °F /  13.4 °C 30.34in /  1027.3hPa Calm     96% 0.00in /  0mm
22:07 57.2 °F /  14 °C 56.1 °F /  13.4 °C 30.34in /  1027.3hPa Calm     96% 0.00in /  0mm
22:13 57.2 °F /  14 °C 56.1 °F /  13.4 °C 30.34in /  1027.3hPa Calm     96% 0.00in /  0mm
22:18 57.2 °F /  14 °C 56.1 °F /  13.4 °C 30.34in /  1027.3hPa Calm     96% 0.00in /  0mm
22:24 57.2 °F /  14 °C 56.1 °F /  13.4 °C 30.34in /  1027.3hPa Calm     96% 0.00in /  0mm
22:29 57.2 °F /  14 °C 56.1 °F /  13.4 °C 30.34in /  1027.3hPa Calm     96% 0.00in /  0mm
22:35 57.2 °F /  14 °C 56.1 °F /  13.4 °C 30.34in /  1027.3hPa Calm     96% 0.00in /  0mm
22:40 57.2 °F /  14 °C 56.1 °F /  13.4 °C 30.34in /  1027.3hPa Calm     96% 0.00in /  0mm
22:46 57.0 °F /  13.9 °C 55.9 °F /  13.3 °C 30.34in /  1027.3hPa Calm     96% 0.00in /  0mm
22:51 57.0 °F /  13.9 °C 55.9 °F /  13.3 °C 30.34in /  1027.3hPa Calm     96% 0.00in /  0mm
22:56 57.0 °F /  13.9 °C 55.9 °F /  13.3 °C 30.34in /  1027.3hPa Calm     96% 0.00in /  0mm
23:01 57.0 °F /  13.9 °C 55.9 °F /  13.3 °C 30.34in /  1027.3hPa Calm     96% 0.00in /  0mm
23:06 57.0 °F /  13.9 °C 55.9 °F /  13.3 °C 30.34in /  1027.3hPa Calm     96% 0.00in /  0mm
23:11 57.0 °F /  13.9 °C 55.9 °F /  13.3 °C 30.34in /  1027.3hPa Calm     96% 0.00in /  0mm
23:16 57.0 °F /  13.9 °C 55.9 °F /  13.3 °C 30.34in /  1027.3hPa Calm     96% 0.00in /  0mm
23:21 57.0 °F /  13.9 °C 55.9 °F /  13.3 °C 30.34in /  1027.3hPa Calm     96% 0.00in /  0mm
23:27 57.0 °F /  13.9 °C 55.9 °F /  13.3 °C 30.34in /  1027.3hPa Calm     96% 0.00in /  0mm
23:33 57.0 °F /  13.9 °C 55.9 °F /  13.3 °C 30.34in /  1027.3hPa Calm     96% 0.01in /  0.25mm
23:39 57.0 °F /  13.9 °C 55.9 °F /  13.3 °C 30.33in /  1027hPa Calm     96% 0.01in /  0.25mm
23:44 57.0 °F /  13.9 °C 56.1 °F /  13.4 °C 30.33in /  1027hPa Calm     97% 0.01in /  0.25mm
23:49 57.0 °F /  13.9 °C 55.9 °F /  13.3 °C 30.34in /  1027.3hPa Calm     96% 0.02in /  0.51mm
23:55 57.0 °F /  13.9 °C 56.1 °F /  13.4 °C 30.33in /  1027hPa Calm     97% 0.02in /  0.51mm
Ellijay Weather
Compliments of Weather Underground - 2.5 mb